Gillette, WY

12:39 PM MDT on April 25, 2015 (GMT -0600)
Gillette-Campbell County | | Change Station
CLOSE
Current Station
Airport
Location: Gillette,
Elevation: 4364 ft
Nearby Weather Stations

Elev 4364 ft 44.34 °N, 105.54 °W | Updated 23 minutes ago

Partly Cloudy
Partly Cloudy
51 °F
Feels Like 51 °F
N
20
Wind Variable Wind from NW

Today
High -- | Low -- °F
--% Chance of Precip.
Yesterday
High -- | Low -- °F
Precip. -- in
6:02 AM 7:59 PM
Waxing Crescent, 48% visible
Pressure 29.71 in
Visibility 10.0 miles
Clouds Mostly Cloudy 1400 ft
Mostly Cloudy 2100 ft
Dew Point 42 °F
Humidity 71%
Rainfall 0.00 in
Snow Depth Not available.
UV 5 out of 12
Pollen 9.70 out of 12
Air Quality Not available.
Flu Activity Local Activity
SPECI KGCC 251816Z AUTO 32017KT 10SM BKN014 BKN021 11/06 A2971 RMK AO2 PRESRR T01060056

More Conditions Fewer Conditions

Pressure 29.71 in
Visibility 10.0 miles
Clouds Mostly Cloudy 1400 ft
Mostly Cloudy 2100 ft
Dew Point 42 °F
Humidity 71%
Rainfall 0.00 in
Snow Depth Not available.
UV 5 out of 12
Pollen 9.70 out of 12
Air Quality Not available.
Flu Activity Local Activity
SPECI KGCC 251816Z AUTO 32017KT 10SM BKN014 BKN021 11/06 A2971 RMK AO2 PRESRR T01060056

More Conditions Fewer Conditions

10-Day Weather Forecast

Almanac

Astronomy

Apr. 25, 2015 Rise Set
Actual Time
Civil Twilight
Nautical Twilight
Astronomical Twilight
Moon
Length of Visible Light
Length of Day
Tomorrow will be .
, % of the Moon is Illuminated

Today's Extremes

State Highs State Lows

Community

WunderPhotos

Upload Photos

1,816,766 photos uploaded!

WunderBlogs® & News

Nearby

Air Quality

  Air Quality AQ Index Pollutant
Not available.

Snow Depth

Station Depth Elevation

Earthquake Activity

City Distance Mag. Time & Date
Minimum magnitude displayed is 2.5.

Coastal Water Temperatures

Place Temperature

Stations

Nearby Weather Stations

Station Location Temp. Windchill Dew Point Humidity Wind Precip. Elev Updated Type